Time;durP1;ratioP1;P1;durP2;ratioP2;P2;SDS_P1;SDS_P2;PMS_P1;PMS_P2;Temp;Humidity;BMP_temperature;BMP_pressure;BME280_temperature;BME280_humidity;BME280_pressure;Samples;Min_cycle;Max_cycle;Signal;HPM_P1;HPM_P2
2023/06/07 00:00:08;;;;;;;6.45;3.53;;;;;;;;;;2039779;29;20019;-88
2023/06/07 00:01:09;;;;;;;6.35;3.70;;;;;;;;;;2040200;29;20024;-88
2023/06/07 00:02:11;;;;;;;6.20;3.20;;;;;;;;;;2040382;29;20031;-89
2023/06/07 00:03:13;;;;;;;7.85;3.08;;;;;;;;;;2031864;29;20024;-88
2023/06/07 00:04:13;;;;;;;4.90;3.17;;;;;;;;;;2023981;29;20065;-87
2023/06/07 00:05:14;;;;;;;11.90;3.60;;;;;;;;;;2031594;29;20028;-88
2023/06/07 00:06:15;;;;;;;5.13;3.15;;;;;;;;;;2039925;29;20182;-89
2023/06/07 00:07:15;;;;;;;6.20;3.80;;;;;;;;;;2039842;29;20047;-89
2023/06/07 00:08:17;;;;;;;7.55;3.50;;;;;;;;;;2039857;29;20020;-89
2023/06/07 00:09:18;;;;;;;6.95;3.35;;;;;;;;;;2039825;29;20507;-89
2023/06/07 00:10:18;;;;;;;6.53;3.63;;;;;;;;;;2031371;29;20095;-89
2023/06/07 00:11:21;;;;;;;5.72;3.05;;;;;;;;;;2031409;29;20036;-89
2023/06/07 00:12:22;;;;;;;5.72;3.00;;;;;;;;;;2039925;29;20023;-89
2023/06/07 00:13:23;;;;;;;6.20;3.63;;;;;;;;;;2031088;29;20124;-89
2023/06/07 00:14:24;;;;;;;8.50;3.60;;;;;;;;;;2023153;29;20115;-89
2023/06/07 00:15:24;;;;;;;5.68;4.18;;;;;;;;;;2023397;29;20020;-90
2023/06/07 00:16:26;;;;;;;5.72;3.90;;;;;;;;;;2023053;29;20218;-89
2023/06/07 00:17:27;;;;;;;6.85;3.28;;;;;;;;;;2031066;29;20029;-89
2023/06/07 00:18:28;;;;;;;6.30;3.65;;;;;;;;;;2039854;29;20481;-90
2023/06/07 00:19:29;;;;;;;6.90;4.13;;;;;;;;;;2031646;29;20059;-90
2023/06/07 00:20:30;;;;;;;6.43;3.70;;;;;;;;;;2031632;29;20028;-90
2023/06/07 00:21:31;;;;;;;5.88;4.15;;;;;;;;;;2040163;29;20038;-90
2023/06/07 00:22:34;;;;;;;7.35;3.35;;;;;;;;;;2031685;29;20174;-90
2023/06/07 00:23:35;;;;;;;5.65;3.95;;;;;;;;;;2023483;29;20028;-89
2023/06/07 00:24:35;;;;;;;8.25;3.67;;;;;;;;;;2030955;29;20036;-90
2023/06/07 00:25:36;;;;;;;6.70;3.83;;;;;;;;;;2039746;29;20476;-90
2023/06/07 00:26:36;;;;;;;4.80;3.40;;;;;;;;;;2031201;29;20042;-90
2023/06/07 00:27:36;;;;;;;9.55;3.53;;;;;;;;;;2006763;29;20419;-90
2023/06/07 00:28:37;;;;;;;7.63;4.68;;;;;;;;;;2031053;29;20020;-89
2023/06/07 00:29:37;;;;;;;4.13;3.55;;;;;;;;;;2023273;29;20056;-90
2023/06/07 00:30:39;;;;;;;6.93;4.28;;;;;;;;;;2031011;29;20452;-90
2023/06/07 00:31:39;;;;;;;4.78;3.22;;;;;;;;;;2039771;29;20427;-90
2023/06/07 00:32:40;;;;;;;6.60;3.70;;;;;;;;;;2031075;29;20043;-90
2023/06/07 00:33:40;;;;;;;6.13;3.42;;;;;;;;;;1676808;29;10254167;-90
2023/06/07 00:34:41;;;;;;;5.68;3.28;;;;;;;;;;2030915;29;20088;-89
2023/06/07 00:35:41;;;;;;;4.82;3.53;;;;;;;;;;2030739;29;20028;-89
2023/06/07 00:36:41;;;;;;;5.55;3.47;;;;;;;;;;2031238;29;20407;-89
2023/06/07 00:37:42;;;;;;;5.72;3.70;;;;;;;;;;2039915;29;20039;-90
2023/06/07 00:38:43;;;;;;;5.32;3.90;;;;;;;;;;2039674;29;20055;-89
2023/06/07 00:39:43;;;;;;;7.55;3.50;;;;;;;;;;2040045;29;20024;-89
2023/06/07 00:40:43;;;;;;;4.63;3.40;;;;;;;;;;2033529;29;20028;-89
2023/06/07 00:41:44;;;;;;;6.82;3.47;;;;;;;;;;2029717;29;20044;-90
2023/06/07 00:42:45;;;;;;;6.78;3.75;;;;;;;;;;2032412;29;20099;-89
2023/06/07 00:43:47;;;;;;;8.13;3.92;;;;;;;;;;2031724;29;20028;-90
2023/06/07 00:44:47;;;;;;;6.22;3.83;;;;;;;;;;2031729;29;20086;-89
2023/06/07 00:45:48;;;;;;;7.88;4.22;;;;;;;;;;2023782;29;20096;-90
2023/06/07 00:46:51;;;;;;;5.82;3.60;;;;;;;;;;2031229;29;20393;-90
2023/06/07 00:47:51;;;;;;;6.97;3.58;;;;;;;;;;2040161;29;20024;-90
2023/06/07 00:48:52;;;;;;;6.13;3.88;;;;;;;;;;2039888;29;20039;-90
2023/06/07 00:49:53;;;;;;;6.82;4.03;;;;;;;;;;2031478;29;20099;-90
2023/06/07 00:50:53;;;;;;;4.57;3.58;;;;;;;;;;2031489;29;20123;-90
2023/06/07 00:51:54;;;;;;;6.30;3.45;;;;;;;;;;2031736;29;20028;-90
2023/06/07 00:52:55;;;;;;;8.60;4.13;;;;;;;;;;2031667;29;20028;-90
2023/06/07 00:53:58;;;;;;;4.82;3.50;;;;;;;;;;2039822;29;20113;-90
2023/06/07 00:55:01;;;;;;;6.20;3.47;;;;;;;;;;2039734;29;20024;-90
2023/06/07 00:56:02;;;;;;;6.53;3.33;;;;;;;;;;2039899;29;20020;-89
2023/06/07 00:57:04;;;;;;;7.07;3.45;;;;;;;;;;2039775;29;20488;-89
2023/06/07 00:58:06;;;;;;;7.38;3.50;;;;;;;;;;2031705;29;20567;-90
2023/06/07 00:59:07;;;;;;;5.88;3.50;;;;;;;;;;2033111;29;20107;-90
2023/06/07 01:00:13;;;;;;;7.10;3.97;;;;;;;;;;2041611;29;20408;-89
2023/06/07 01:01:17;;;;;;;6.07;3.95;;;;;;;;;;2041983;29;20273;-90
2023/06/07 01:02:18;;;;;;;5.95;3.90;;;;;;;;;;2041269;29;20019;-90
2023/06/07 01:03:18;;;;;;;4.78;3.20;;;;;;;;;;2032412;29;20046;-90
2023/06/07 01:04:21;;;;;;;7.45;4.35;;;;;;;;;;2024930;29;20024;-90
2023/06/07 01:05:21;;;;;;;8.18;4.20;;;;;;;;;;2033172;29;20035;-89
2023/06/07 01:06:22;;;;;;;5.45;4.18;;;;;;;;;;2032562;29;20194;-90
2023/06/07 01:07:24;;;;;;;6.95;4.97;;;;;;;;;;2024520;29;20836;-90
2023/06/07 01:08:25;;;;;;;8.45;5.05;;;;;;;;;;2025124;29;20037;-89
2023/06/07 01:09:26;;;;;;;9.32;6.18;;;;;;;;;;2025249;29;20056;-90
2023/06/07 01:10:26;;;;;;;10.95;5.40;;;;;;;;;;2032737;29;20115;-91
2023/06/07 01:11:27;;;;;;;6.82;5.25;;;;;;;;;;2040859;29;20356;-90
2023/06/07 01:12:28;;;;;;;10.15;5.70;;;;;;;;;;2040998;29;20045;-90
2023/06/07 01:13:30;;;;;;;8.57;4.95;;;;;;;;;;2042994;29;20040;-90
2023/06/07 01:14:32;;;;;;;9.20;6.10;;;;;;;;;;2037387;29;20175;-90
2023/06/07 01:15:32;;;;;;;9.52;4.93;;;;;;;;;;2031039;29;20036;-90
2023/06/07 01:16:33;;;;;;;7.88;5.47;;;;;;;;;;2034810;29;20043;-90
2023/06/07 01:17:37;;;;;;;8.00;5.00;;;;;;;;;;2041190;29;20043;-90
2023/06/07 01:18:38;;;;;;;9.82;5.80;;;;;;;;;;2040834;29;20060;-90
2023/06/07 01:19:42;;;;;;;7.30;4.95;;;;;;;;;;2036661;29;20196;-88
2023/06/07 01:20:48;;;;;;;5.80;4.90;;;;;;;;;;2034232;29;20028;-90
2023/06/07 01:21:56;;;;;;;11.35;5.22;;;;;;;;;;2032583;29;20039;-90
2023/06/07 01:22:59;;;;;;;8.05;4.93;;;;;;;;;;2032608;29;20036;-90
2023/06/07 01:24:00;;;;;;;10.75;5.18;;;;;;;;;;2032749;29;20071;-89
2023/06/07 01:25:00;;;;;;;12.10;5.90;;;;;;;;;;2032297;29;20119;-89
2023/06/07 01:26:02;;;;;;;10.70;6.30;;;;;;;;;;2024718;29;20029;-89
2023/06/07 01:27:07;;;;;;;13.73;6.60;;;;;;;;;;2032559;29;20045;-88
2023/06/07 01:28:07;;;;;;;14.50;6.78;;;;;;;;;;2032358;29;20051;-89
2023/06/07 01:29:08;;;;;;;14.40;6.88;;;;;;;;;;2032557;29;20496;-89
2023/06/07 01:30:10;;;;;;;17.38;7.22;;;;;;;;;;2032499;29;20054;-88
2023/06/07 01:31:12;;;;;;;13.63;7.45;;;;;;;;;;2035152;29;20028;-88
2023/06/07 01:32:14;;;;;;;14.75;8.32;;;;;;;;;;2049850;29;20022;-89
2023/06/07 01:33:16;;;;;;;15.20;7.15;;;;;;;;;;2042118;29;20036;-89
2023/06/07 01:34:19;;;;;;;13.43;8.00;;;;;;;;;;2042831;29;20050;-89
2023/06/07 01:35:20;;;;;;;15.13;7.45;;;;;;;;;;2050681;29;20023;-89
2023/06/07 01:36:25;;;;;;;15.95;7.15;;;;;;;;;;2050282;29;20263;-89
2023/06/07 01:37:26;;;;;;;14.32;7.68;;;;;;;;;;2045649;29;20031;-89
2023/06/07 01:38:27;;;;;;;16.48;7.85;;;;;;;;;;2033735;29;20153;-89
2023/06/07 01:39:29;;;;;;;20.77;7.47;;;;;;;;;;2032622;29;20238;-89
2023/06/07 01:40:32;;;;;;;14.18;7.57;;;;;;;;;;2032122;29;20131;-89
2023/06/07 01:41:34;;;;;;;16.70;7.18;;;;;;;;;;2024711;29;20085;-89
2023/06/07 01:42:36;;;;;;;19.08;7.88;;;;;;;;;;2032165;29;20549;-89
2023/06/07 01:43:37;;;;;;;17.67;7.82;;;;;;;;;;2031675;29;20439;-90
2023/06/07 01:44:40;;;;;;;15.90;7.28;;;;;;;;;;2016022;29;20036;-90
2023/06/07 01:45:41;;;;;;;17.70;7.32;;;;;;;;;;2032042;29;20038;-89
2023/06/07 01:46:42;;;;;;;14.85;8.35;;;;;;;;;;2032596;29;20043;-89
2023/06/07 01:47:43;;;;;;;17.25;8.55;;;;;;;;;;2032544;29;20096;-90
2023/06/07 01:48:43;;;;;;;15.95;7.68;;;;;;;;;;2024148;29;20131;-89
2023/06/07 01:49:44;;;;;;;14.20;7.20;;;;;;;;;;2024394;29;20042;-90
2023/06/07 01:50:45;;;;;;;15.88;7.35;;;;;;;;;;2032585;29;20032;-89
2023/06/07 01:51:45;;;;;;;17.65;7.05;;;;;;;;;;2032761;29;20061;-89
2023/06/07 01:52:46;;;;;;;13.98;7.93;;;;;;;;;;2032330;29;20467;-89
2023/06/07 01:53:49;;;;;;;18.80;8.20;;;;;;;;;;2024296;29;20481;-89
2023/06/07 01:54:50;;;;;;;18.02;8.20;;;;;;;;;;1686963;29;10000969;-89
2023/06/07 01:56:03;;;;;;;15.48;7.97;;;;;;;;;;2032309;29;20038;-88
2023/06/07 01:57:15;;;;;;;13.98;7.70;;;;;;;;;;2024401;29;20476;-89
2023/06/07 01:58:23;;;;;;;13.93;7.28;;;;;;;;;;2026172;29;20028;-89
2023/06/07 02:00:00;;;;;;;18.40;7.97;;;;;;;;;;2025041;29;20122;-88
2023/06/07 02:01:16;;;;;;;16.98;7.90;;;;;;;;;;2021394;29;20036;-90
2023/06/07 02:02:26;;;;;;;16.55;8.07;;;;;;;;;;2026933;29;20079;-89
2023/06/07 02:03:28;;;;;;;16.75;7.32;;;;;;;;;;2033021;29;20107;-89
2023/06/07 02:04:31;;;;;;;17.73;8.60;;;;;;;;;;2032657;29;20086;-89
2023/06/07 02:05:35;;;;;;;18.75;7.78;;;;;;;;;;2032458;29;20143;-89
2023/06/07 02:06:43;;;;;;;16.10;7.88;;;;;;;;;;2032356;29;20040;-88
2023/06/07 02:07:50;;;;;;;14.68;8.25;;;;;;;;;;2024603;29;20122;-90
2023/06/07 02:08:54;;;;;;;14.50;7.35;;;;;;;;;;2025537;29;20029;-89
2023/06/07 02:09:56;;;;;;;13.32;7.97;;;;;;;;;;2023462;29;20436;-88
2023/06/07 02:10:57;;;;;;;16.40;7.22;;;;;;;;;;2023940;29;20474;-88
2023/06/07 02:12:01;;;;;;;14.95;7.70;;;;;;;;;;2032368;29;20071;-88
2023/06/07 02:13:02;;;;;;;17.42;8.23;;;;;;;;;;2032589;29;20496;-88
2023/06/07 02:14:03;;;;;;;17.30;8.63;;;;;;;;;;2032466;29;20042;-89
2023/06/07 02:15:04;;;;;;;15.35;7.53;;;;;;;;;;2023955;29;20031;-88
2023/06/07 02:16:05;;;;;;;17.33;8.25;;;;;;;;;;2016347;29;20056;-88
2023/06/07 02:17:07;;;;;;;14.50;8.30;;;;;;;;;;2016255;29;20032;-87
2023/06/07 02:18:08;;;;;;;15.30;7.95;;;;;;;;;;2016353;29;20474;-88
2023/06/07 02:19:09;;;;;;;15.00;7.47;;;;;;;;;;2015937;29;20025;-88
2023/06/07 02:20:10;;;;;;;15.70;7.82;;;;;;;;;;2023919;29;20562;-89
2023/06/07 02:21:10;;;;;;;15.30;7.60;;;;;;;;;;2032559;29;20031;-87
2023/06/07 02:22:13;;;;;;;15.88;7.38;;;;;;;;;;2029538;29;20028;-88
2023/06/07 02:23:14;;;;;;;17.92;8.20;;;;;;;;;;2024284;29;20032;-88
2023/06/07 02:24:16;;;;;;;14.13;7.90;;;;;;;;;;1683178;29;10282263;-89
2023/06/07 02:25:16;;;;;;;16.75;8.30;;;;;;;;;;2023938;29;20098;-88
2023/06/07 02:26:16;;;;;;;17.73;7.85;;;;;;;;;;2016380;29;20037;-88
2023/06/07 02:27:17;;;;;;;20.05;8.55;;;;;;;;;;2016304;29;20135;-88
2023/06/07 02:28:17;;;;;;;17.13;8.38;;;;;;;;;;2023892;29;20060;-88
2023/06/07 02:29:18;;;;;;;19.27;8.20;;;;;;;;;;2023803;29;20048;-88
2023/06/07 02:30:19;;;;;;;17.50;8.50;;;;;;;;;;2023913;29;20029;-89
2023/06/07 02:31:22;;;;;;;19.63;8.90;;;;;;;;;;2024165;29;20556;-88
2023/06/07 02:32:23;;;;;;;19.33;8.27;;;;;;;;;;2023959;29;20036;-88
2023/06/07 02:33:24;;;;;;;16.02;8.13;;;;;;;;;;2024400;29;20532;-88
2023/06/07 02:34:24;;;;;;;16.80;8.23;;;;;;;;;;2031712;29;20036;-89
2023/06/07 02:35:25;;;;;;;18.23;8.40;;;;;;;;;;2024009;29;20032;-88
2023/06/07 02:36:25;;;;;;;18.85;8.40;;;;;;;;;;2016104;29;20470;-87
2023/06/07 02:37:26;;;;;;;19.58;8.38;;;;;;;;;;2015940;29;20037;-87
2023/06/07 02:38:27;;;;;;;18.80;9.35;;;;;;;;;;2023972;29;20032;-87
2023/06/07 02:39:28;;;;;;;22.80;8.68;;;;;;;;;;2031928;29;20103;-87
2023/06/07 02:40:28;;;;;;;19.13;8.75;;;;;;;;;;2032409;29;20035;-86
2023/06/07 02:41:29;;;;;;;20.75;8.82;;;;;;;;;;2032318;29;20031;-86
2023/06/07 02:42:29;;;;;;;19.30;8.85;;;;;;;;;;2032318;29;20382;-87
2023/06/07 02:43:30;;;;;;;22.05;8.88;;;;;;;;;;2023789;29;20017;-86
2023/06/07 02:44:30;;;;;;;23.70;9.02;;;;;;;;;;2016559;29;20142;-86
2023/06/07 02:45:30;;;;;;;21.60;9.23;;;;;;;;;;2024529;29;20025;-87
2023/06/07 02:46:31;;;;;;;17.05;8.52;;;;;;;;;;2023837;29;20123;-87
2023/06/07 02:47:32;;;;;;;22.60;9.63;;;;;;;;;;2024101;29;20028;-87
2023/06/07 02:48:32;;;;;;;19.08;8.70;;;;;;;;;;2024372;29;20084;-87
2023/06/07 02:49:32;;;;;;;21.73;9.20;;;;;;;;;;2024358;29;20472;-87
2023/06/07 02:50:33;;;;;;;25.17;10.40;;;;;;;;;;2032442;29;20425;-89
2023/06/07 02:51:33;;;;;;;25.55;10.57;;;;;;;;;;2024221;29;20036;-88
2023/06/07 02:52:34;;;;;;;22.45;9.70;;;;;;;;;;2024275;29;20020;-88
2023/06/07 02:53:35;;;;;;;27.48;10.45;;;;;;;;;;2032291;29;20090;-89
2023/06/07 02:54:36;;;;;;;23.63;10.10;;;;;;;;;;2032625;29;20099;-89
2023/06/07 02:55:36;;;;;;;21.15;9.70;;;;;;;;;;2032840;29;20126;-88
2023/06/07 02:56:36;;;;;;;26.30;10.30;;;;;;;;;;2032744;29;20027;-89
2023/06/07 02:57:37;;;;;;;25.95;10.35;;;;;;;;;;2032432;29;20040;-88
2023/06/07 02:58:37;;;;;;;24.48;10.40;;;;;;;;;;2032239;29;20043;-87
2023/06/07 02:59:39;;;;;;;29.60;11.40;;;;;;;;;;2023807;29;20087;-88
2023/06/07 03:00:39;;;;;;;31.10;12.52;;;;;;;;;;2024001;29;20024;-89
2023/06/07 03:01:40;;;;;;;25.80;11.15;;;;;;;;;;2032312;29;20027;-88
2023/06/07 03:02:41;;;;;;;32.72;12.57;;;;;;;;;;2023450;29;20128;-88
2023/06/07 03:03:42;;;;;;;29.38;11.85;;;;;;;;;;2023601;29;20057;-89
2023/06/07 03:04:43;;;;;;;34.95;12.70;;;;;;;;;;2031379;29;20109;-89
2023/06/07 03:05:48;;;;;;;30.35;11.77;;;;;;;;;;2031968;29;20024;-88
2023/06/07 03:06:52;;;;;;;30.77;12.52;;;;;;;;;;2023515;29;20044;-88
2023/06/07 03:07:56;;;;;;;28.58;12.68;;;;;;;;;;2023655;29;20028;-88
2023/06/07 03:08:57;;;;;;;31.17;12.73;;;;;;;;;;2024253;29;20028;-89
2023/06/07 03:09:57;;;;;;;30.77;12.98;;;;;;;;;;2032041;29;20107;-88
2023/06/07 03:10:58;;;;;;;34.08;12.93;;;;;;;;;;2031459;29;20465;-88
2023/06/07 03:11:58;;;;;;;34.45;14.45;;;;;;;;;;2026265;29;20115;-86
2023/06/07 03:12:58;;;;;;;31.30;14.98;;;;;;;;;;2017251;29;20052;-88
2023/06/07 03:13:59;;;;;;;32.72;15.10;;;;;;;;;;2023686;29;20035;-88
2023/06/07 03:14:59;;;;;;;35.78;14.98;;;;;;;;;;2032164;29;20042;-88
2023/06/07 03:16:00;;;;;;;39.28;15.15;;;;;;;;;;2023644;29;20072;-88
2023/06/07 03:17:02;;;;;;;32.90;15.27;;;;;;;;;;2023985;29;20143;-87
2023/06/07 03:18:05;;;;;;;29.10;13.40;;;;;;;;;;1682812;29;10289160;-88
2023/06/07 03:19:06;;;;;;;31.50;15.02;;;;;;;;;;2032096;29;20046;-88
2023/06/07 03:20:08;;;;;;;36.30;15.20;;;;;;;;;;2032156;29;20028;-88
2023/06/07 03:21:09;;;;;;;31.45;15.95;;;;;;;;;;2023277;29;20129;-88
2023/06/07 03:22:09;;;;;;;33.50;16.13;;;;;;;;;;2023947;29;20089;-89
2023/06/07 03:23:14;;;;;;;36.60;15.65;;;;;;;;;;1686444;29;10247489;-90
2023/06/07 03:24:16;;;;;;;40.45;17.48;;;;;;;;;;2032625;29;20055;-88
2023/06/07 03:25:16;;;;;;;35.75;16.27;;;;;;;;;;2032298;29;20028;-88
2023/06/07 03:26:17;;;;;;;37.10;17.27;;;;;;;;;;2032261;29;20063;-88
2023/06/07 03:27:22;;;;;;;35.28;17.30;;;;;;;;;;2032716;29;20221;-88
2023/06/07 03:28:22;;;;;;;36.42;15.70;;;;;;;;;;2032501;29;20035;-88
2023/06/07 03:29:23;;;;;;;39.70;16.48;;;;;;;;;;1692389;29;10002208;-88
2023/06/07 03:30:23;;;;;;;35.10;16.20;;;;;;;;;;2032521;29;20024;-88
2023/06/07 03:31:25;;;;;;;37.15;17.35;;;;;;;;;;2032305;29;20027;-88
2023/06/07 03:32:26;;;;;;;37.25;16.75;;;;;;;;;;2032194;29;20107;-88
2023/06/07 03:33:27;;;;;;;38.35;16.15;;;;;;;;;;2032185;29;20042;-88
2023/06/07 03:34:29;;;;;;;37.83;16.42;;;;;;;;;;2032322;29;20130;-88
2023/06/07 03:35:30;;;;;;;29.45;14.88;;;;;;;;;;2023829;29;20043;-89
2023/06/07 03:36:31;;;;;;;30.90;14.77;;;;;;;;;;2023843;29;20036;-89
2023/06/07 03:37:32;;;;;;;36.95;16.33;;;;;;;;;;2025872;29;20081;-88
2023/06/07 03:38:33;;;;;;;35.25;17.42;;;;;;;;;;2024307;29;20029;-89
2023/06/07 03:39:36;;;;;;;32.70;15.52;;;;;;;;;;1889614;29;5001335;-89
2023/06/07 03:40:36;;;;;;;33.83;16.35;;;;;;;;;;2043972;29;20035;-88
2023/06/07 03:41:38;;;;;;;31.30;16.00;;;;;;;;;;2041050;29;20043;-88
2023/06/07 03:42:39;;;;;;;31.73;15.20;;;;;;;;;;2039394;29;20020;-88
2023/06/07 03:43:39;;;;;;;32.72;17.15;;;;;;;;;;2041270;29;20039;-88
2023/06/07 03:44:39;;;;;;;31.02;14.35;;;;;;;;;;2031219;29;20060;-88
2023/06/07 03:45:40;;;;;;;32.95;16.05;;;;;;;;;;2037830;29;20079;-88
2023/06/07 03:46:41;;;;;;;31.85;15.85;;;;;;;;;;2032356;29;20032;-88
2023/06/07 03:47:42;;;;;;;31.58;15.55;;;;;;;;;;2031832;29;20111;-88
2023/06/07 03:48:42;;;;;;;36.92;16.42;;;;;;;;;;2039207;29;20098;-88
2023/06/07 03:49:44;;;;;;;36.92;17.63;;;;;;;;;;2039695;29;20035;-88
2023/06/07 03:50:44;;;;;;;37.40;17.70;;;;;;;;;;2039950;29;20032;-88
2023/06/07 03:51:45;;;;;;;32.08;16.67;;;;;;;;;;2039762;29;20506;-88
2023/06/07 03:52:46;;;;;;;34.78;16.42;;;;;;;;;;2039601;29;20028;-88
2023/06/07 03:53:46;;;;;;;35.17;16.05;;;;;;;;;;2039787;29;20035;-89
2023/06/07 03:54:47;;;;;;;35.60;17.15;;;;;;;;;;2031275;29;20032;-88
2023/06/07 03:55:48;;;;;;;36.22;17.42;;;;;;;;;;2023445;29;20032;-88
2023/06/07 03:56:48;;;;;;;35.28;15.50;;;;;;;;;;2023604;29;20074;-89
2023/06/07 03:57:49;;;;;;;39.35;17.63;;;;;;;;;;2023571;29;20149;-89
2023/06/07 03:58:50;;;;;;;40.70;19.00;;;;;;;;;;2025436;29;20040;-88
2023/06/07 03:59:50;;;;;;;36.00;17.55;;;;;;;;;;2041057;29;20052;-88
2023/06/07 04:00:54;;;;;;;36.60;17.30;;;;;;;;;;2049997;29;20051;-88
2023/06/07 04:01:57;;;;;;;36.10;17.70;;;;;;;;;;2041540;29;20024;-88
2023/06/07 04:02:57;;;;;;;43.13;20.35;;;;;;;;;;2040770;29;20036;-88
2023/06/07 04:03:57;;;;;;;42.03;21.13;;;;;;;;;;2047054;29;20036;-89
2023/06/07 04:04:58;;;;;;;38.72;18.60;;;;;;;;;;2039394;29;20042;-89
2023/06/07 04:05:58;;;;;;;38.63;18.17;;;;;;;;;;2035248;29;20024;-89
2023/06/07 04:07:03;;;;;;;37.22;17.90;;;;;;;;;;2031150;29;20132;-88
2023/06/07 04:08:05;;;;;;;35.53;15.73;;;;;;;;;;2031067;29;20032;-89
2023/06/07 04:09:08;;;;;;;41.22;18.25;;;;;;;;;;2031417;29;20044;-89
2023/06/07 04:10:08;;;;;;;43.45;22.73;;;;;;;;;;2039223;29;20032;-89
2023/06/07 04:11:09;;;;;;;41.47;19.55;;;;;;;;;;2039826;29;20015;-88
2023/06/07 04:12:10;;;;;;;31.23;15.05;;;;;;;;;;2031150;29;20111;-90
2023/06/07 04:13:10;;;;;;;31.45;16.67;;;;;;;;;;2031417;29;20035;-90
2023/06/07 04:14:11;;;;;;;39.50;20.30;;;;;;;;;;2039921;29;20020;-90
2023/06/07 04:15:11;;;;;;;38.70;18.33;;;;;;;;;;2039978;29;20064;-90
2023/06/07 04:16:12;;;;;;;31.88;16.75;;;;;;;;;;2031136;29;20038;-90
2023/06/07 04:17:12;;;;;;;34.50;17.15;;;;;;;;;;2031621;29;20089;-90
2023/06/07 04:18:13;;;;;;;32.22;17.50;;;;;;;;;;2040079;29;20035;-89
2023/06/07 04:19:13;;;;;;;36.92;17.70;;;;;;;;;;2031640;29;20064;-88
2023/06/07 04:20:14;;;;;;;33.35;16.67;;;;;;;;;;2031502;29;20556;-89
2023/06/07 04:21:15;;;;;;;37.80;17.52;;;;;;;;;;2031224;29;20032;-90
2023/06/07 04:22:16;;;;;;;34.92;17.10;;;;;;;;;;2040056;29;20464;-90
2023/06/07 04:23:17;;;;;;;34.20;17.98;;;;;;;;;;2040783;29;20039;-89
2023/06/07 04:24:18;;;;;;;33.60;16.35;;;;;;;;;;2031496;29;20175;-89
2023/06/07 04:25:31;;;;;;;31.23;16.95;;;;;;;;;;2031453;29;20251;-89
2023/06/07 04:26:32;;;;;;;37.90;18.30;;;;;;;;;;2031493;29;20043;-89
2023/06/07 04:27:32;;;;;;;32.92;16.90;;;;;;;;;;2023527;29;20036;-89
2023/06/07 04:28:33;;;;;;;32.40;17.70;;;;;;;;;;2031783;29;20039;-89
2023/06/07 04:29:40;;;;;;;33.05;17.73;;;;;;;;;;1812319;29;10244940;-89
2023/06/07 04:30:42;;;;;;;33.65;17.83;;;;;;;;;;2031550;29;20238;-90
2023/06/07 04:31:43;;;;;;;36.40;19.77;;;;;;;;;;1692445;29;10001096;-90
2023/06/07 04:32:47;;;;;;;38.30;20.95;;;;;;;;;;2039875;29;20430;-90
2023/06/07 04:33:47;;;;;;;34.03;18.90;;;;;;;;;;2032593;29;20417;-90
2023/06/07 04:34:48;;;;;;;34.30;17.15;;;;;;;;;;2033130;29;20106;-88
2023/06/07 04:35:50;;;;;;;30.70;17.00;;;;;;;;;;2033081;29;20039;-89
2023/06/07 04:36:57;;;;;;;36.60;18.38;;;;;;;;;;2032942;29;20051;-90
2023/06/07 04:38:01;;;;;;;31.42;16.55;;;;;;;;;;2041310;29;20539;-89
2023/06/07 04:39:02;;;;;;;30.23;17.13;;;;;;;;;;2041610;29;20015;-90
2023/06/07 04:40:04;;;;;;;30.13;16.52;;;;;;;;;;2041400;29;20034;-87
2023/06/07 04:41:06;;;;;;;29.90;17.38;;;;;;;;;;2032557;29;20035;-89
2023/06/07 04:42:07;;;;;;;31.80;16.88;;;;;;;;;;2032963;29;20115;-89
2023/06/07 04:43:10;;;;;;;30.20;17.55;;;;;;;;;;2041358;29;20023;-89
2023/06/07 04:44:28;;;;;;;29.33;15.30;;;;;;;;;;2032862;29;20330;-89
2023/06/07 04:45:31;;;;;;;32.17;18.27;;;;;;;;;;2033224;29;20031;-88
2023/06/07 04:46:32;;;;;;;27.48;16.60;;;;;;;;;;2033860;29;20417;-88
2023/06/07 04:47:33;;;;;;;26.42;16.40;;;;;;;;;;2041343;29;20051;-89
2023/06/07 04:48:37;;;;;;;25.77;15.18;;;;;;;;;;2041415;29;20043;-89
2023/06/07 04:49:38;;;;;;;25.85;14.73;;;;;;;;;;2041586;29;20456;-89
2023/06/07 04:50:41;;;;;;;25.52;14.80;;;;;;;;;;2033406;29;20059;-89
2023/06/07 04:51:42;;;;;;;23.67;14.65;;;;;;;;;;2033904;29;20119;-89
2023/06/07 04:52:43;;;;;;;23.63;13.93;;;;;;;;;;2036697;29;20028;-89
2023/06/07 04:53:44;;;;;;;26.45;15.18;;;;;;;;;;2033404;29;20108;-89
2023/06/07 04:54:46;;;;;;;27.10;15.73;;;;;;;;;;2041173;29;20540;-89
2023/06/07 04:55:47;;;;;;;23.67;14.93;;;;;;;;;;2041037;29;20099;-89
2023/06/07 04:56:48;;;;;;;26.40;14.77;;;;;;;;;;2041333;29;20032;-89
2023/06/07 04:57:48;;;;;;;26.05;15.55;;;;;;;;;;2032336;29;20096;-89
2023/06/07 04:58:52;;;;;;;23.00;15.02;;;;;;;;;;2032504;29;20118;-89
2023/06/07 04:59:52;;;;;;;25.90;15.32;;;;;;;;;;2032473;29;20193;-88
2023/06/07 05:00:53;;;;;;;26.58;15.10;;;;;;;;;;2032254;29;20032;-88
2023/06/07 05:01:53;;;;;;;22.60;14.95;;;;;;;;;;2040854;29;20062;-89
2023/06/07 05:02:53;;;;;;;26.55;15.52;;;;;;;;;;2032217;29;20133;-89
2023/06/07 05:04:02;;;;;;;24.17;14.48;;;;;;;;;;2032580;29;20135;-89
2023/06/07 05:05:03;;;;;;;25.48;16.02;;;;;;;;;;2043745;29;20074;-89
2023/06/07 05:06:04;;;;;;;24.73;14.43;;;;;;;;;;2041360;29;20038;-89
2023/06/07 05:07:06;;;;;;;21.45;14.23;;;;;;;;;;2032381;29;20578;-89
2023/06/07 05:08:06;;;;;;;23.77;14.57;;;;;;;;;;2032569;29;20100;-89
2023/06/07 05:09:07;;;;;;;24.52;14.02;;;;;;;;;;2032774;29;20485;-88
2023/06/07 05:10:07;;;;;;;24.65;14.18;;;;;;;;;;2032440;29;20028;-89
2023/06/07 05:11:08;;;;;;;22.80;15.00;;;;;;;;;;2032561;29;20128;-87
2023/06/07 05:12:08;;;;;;;23.20;13.98;;;;;;;;;;2041252;29;20090;-89
2023/06/07 05:13:09;;;;;;;20.48;13.27;;;;;;;;;;2032404;29;20032;-89
2023/06/07 05:14:09;;;;;;;20.98;13.65;;;;;;;;;;2024674;29;20043;-89
2023/06/07 05:15:11;;;;;;;21.30;14.07;;;;;;;;;;1692015;29;10000422;-89
2023/06/07 05:16:16;;;;;;;19.50;12.95;;;;;;;;;;2041233;29;20031;-88
2023/06/07 05:17:19;;;;;;;23.63;13.68;;;;;;;;;;2032382;29;20428;-88
2023/06/07 05:18:20;;;;;;;25.90;14.50;;;;;;;;;;2024835;29;20100;-89
2023/06/07 05:19:21;;;;;;;21.80;14.15;;;;;;;;;;2024611;29;20029;-89
2023/06/07 05:20:24;;;;;;;20.08;12.38;;;;;;;;;;2032421;29;20107;-88
2023/06/07 05:21:25;;;;;;;20.80;13.10;;;;;;;;;;2041233;29;20039;-89
2023/06/07 05:22:25;;;;;;;22.40;13.98;;;;;;;;;;2032770;29;20040;-89
2023/06/07 05:23:26;;;;;;;20.08;13.93;;;;;;;;;;2032624;29;20024;-88
2023/06/07 05:24:27;;;;;;;23.63;14.63;;;;;;;;;;2032257;29;20039;-89
2023/06/07 05:25:27;;;;;;;22.70;14.25;;;;;;;;;;2032425;29;20519;-89
2023/06/07 05:26:28;;;;;;;22.83;13.85;;;;;;;;;;2032566;29;20020;-88
2023/06/07 05:27:28;;;;;;;20.15;12.75;;;;;;;;;;2032904;29;20048;-89
2023/06/07 05:28:29;;;;;;;20.88;13.35;;;;;;;;;;2033356;29;20027;-89
2023/06/07 05:29:29;;;;;;;24.02;14.40;;;;;;;;;;2032539;29;20035;-87
2023/06/07 05:30:30;;;;;;;23.30;14.10;;;;;;;;;;2024619;29;20039;-89
2023/06/07 05:31:30;;;;;;;22.30;14.13;;;;;;;;;;2032644;29;20024;-88
2023/06/07 05:32:31;;;;;;;27.10;15.02;;;;;;;;;;2032619;29;20585;-88
2023/06/07 05:33:31;;;;;;;22.90;13.93;;;;;;;;;;2032563;29;20016;-89
2023/06/07 05:34:32;;;;;;;22.83;13.45;;;;;;;;;;2032650;29;20052;-89
2023/06/07 05:35:33;;;;;;;20.15;13.02;;;;;;;;;;2040775;29;20035;-89
2023/06/07 05:36:34;;;;;;;24.02;13.18;;;;;;;;;;2040520;29;20027;-88
2023/06/07 05:37:35;;;;;;;25.13;14.25;;;;;;;;;;2040290;29;20050;-88
2023/06/07 05:38:36;;;;;;;21.55;13.15;;;;;;;;;;2040295;29;20042;-88
2023/06/07 05:39:37;;;;;;;20.92;14.00;;;;;;;;;;2031926;29;20413;-88
2023/06/07 05:40:37;;;;;;;22.38;13.93;;;;;;;;;;2031731;29;20115;-89
2023/06/07 05:41:37;;;;;;;20.50;13.23;;;;;;;;;;1691952;29;10240651;-89
2023/06/07 05:42:38;;;;;;;22.25;13.65;;;;;;;;;;2042564;29;20063;-88
2023/06/07 05:43:38;;;;;;;24.15;13.57;;;;;;;;;;2037352;29;20020;-89
2023/06/07 05:44:40;;;;;;;19.80;13.30;;;;;;;;;;2026293;29;20025;-88
2023/06/07 05:45:41;;;;;;;20.25;13.32;;;;;;;;;;2032580;29;20027;-89
2023/06/07 05:46:41;;;;;;;21.65;13.43;;;;;;;;;;2040233;29;20023;-89
2023/06/07 05:47:45;;;;;;;22.45;13.60;;;;;;;;;;2032267;29;20028;-89
2023/06/07 05:48:46;;;;;;;20.90;13.13;;;;;;;;;;2035236;29;20032;-87
2023/06/07 05:49:47;;;;;;;22.23;13.63;;;;;;;;;;2040824;29;20024;-88
2023/06/07 05:50:47;;;;;;;19.88;13.35;;;;;;;;;;2032652;29;20024;-88
2023/06/07 05:51:48;;;;;;;21.17;13.48;;;;;;;;;;1685571;29;10214982;-88
2023/06/07 05:52:57;;;;;;;18.30;13.02;;;;;;;;;;2032448;29;20028;-88
2023/06/07 05:53:57;;;;;;;19.67;12.80;;;;;;;;;;2033617;29;20040;-89
2023/06/07 05:54:58;;;;;;;20.27;12.73;;;;;;;;;;2032210;29;20028;-88
2023/06/07 05:56:00;;;;;;;19.35;12.95;;;;;;;;;;2032062;29;20024;-88
2023/06/07 05:57:01;;;;;;;21.05;13.30;;;;;;;;;;2040590;29;20472;-88
2023/06/07 05:58:01;;;;;;;19.50;12.63;;;;;;;;;;2040484;29;20024;-88
2023/06/07 05:59:02;;;;;;;20.05;12.68;;;;;;;;;;2039875;29;20028;-87
2023/06/07 06:00:10;;;;;;;18.75;12.05;;;;;;;;;;2040814;29;20023;-88
2023/06/07 06:01:11;;;;;;;17.67;11.88;;;;;;;;;;2032150;29;20048;-88